createdAt,value
2018-07-12T00:01:50.671Z,97844.56
2018-07-12T00:04:18.164Z,97847.97
2018-07-12T00:06:45.658Z,97849.42
2018-07-12T00:09:13.161Z,97852.80
2018-07-12T00:11:40.624Z,97859.69
2018-07-12T00:14:08.192Z,97861.14
2018-07-12T00:16:35.699Z,97866.87
2018-07-12T00:19:03.144Z,97863.30
2018-07-12T00:21:30.714Z,97867.88
2018-07-12T00:23:58.222Z,97863.14
2018-07-12T00:26:25.764Z,97861.45
2018-07-12T00:28:53.265Z,97863.30
2018-07-12T00:31:20.832Z,97861.73
2018-07-12T00:33:48.397Z,97865.61
2018-07-12T00:36:15.951Z,97867.30
2018-07-12T00:38:43.365Z,97864.79
2018-07-12T00:41:10.833Z,97867.69
2018-07-12T00:43:38.309Z,97864.91
2018-07-12T00:46:05.678Z,97866.83
2018-07-12T00:48:33.178Z,97871.76
2018-07-12T00:51:00.705Z,97873.92
2018-07-12T00:53:28.168Z,97871.84
2018-07-12T00:55:55.646Z,97873.41
2018-07-12T00:58:23.223Z,97879.00
2018-07-12T01:00:50.667Z,97877.91
2018-07-12T01:03:18.366Z,97869.78
2018-07-12T01:05:45.904Z,97871.70
2018-07-12T01:08:13.491Z,97871.81
2018-07-12T01:10:41.010Z,97867.70
2018-07-12T01:13:08.442Z,97869.42
2018-07-12T01:15:35.975Z,97867.87
2018-07-12T01:18:03.491Z,97866.61
2018-07-12T01:20:31.066Z,97867.69
2018-07-12T01:22:58.594Z,97868.20
2018-07-12T01:25:26.197Z,97865.53
2018-07-12T01:27:53.710Z,97863.97
2018-07-12T01:30:21.319Z,97866.48
2018-07-12T01:32:48.822Z,97866.48
2018-07-12T01:35:16.313Z,97870.48
2018-07-12T01:37:43.809Z,97866.48
2018-07-12T01:40:11.308Z,97864.12
2018-07-12T01:42:38.895Z,97869.62
2018-07-12T01:45:06.380Z,97877.50
2018-07-12T01:47:33.862Z,97867.49
2018-07-12T01:50:01.366Z,97871.73
2018-07-12T01:52:28.875Z,97867.54
2018-07-12T01:54:56.443Z,97873.69
2018-07-12T01:57:24.035Z,97874.86
2018-07-12T01:59:51.546Z,97870.12
2018-07-12T02:02:18.978Z,97870.19
2018-07-12T02:04:46.460Z,97870.03
2018-07-12T02:07:14.174Z,97874.03
2018-07-12T02:09:41.691Z,97870.61
2018-07-12T02:12:09.135Z,97871.12
2018-07-12T02:14:36.754Z,97874.38
2018-07-12T02:17:04.274Z,97869.58
2018-07-12T02:19:31.823Z,97866.83
2018-07-12T02:21:59.319Z,97869.50
2018-07-12T02:24:26.826Z,97874.19
2018-07-12T02:26:54.397Z,97878.99
2018-07-12T02:29:21.896Z,97878.48
2018-07-12T02:31:49.416Z,97873.86
2018-07-12T02:34:16.969Z,97882.71
2018-07-12T02:36:44.595Z,97887.56
2018-07-12T02:39:12.260Z,97884.16
2018-07-12T02:41:39.733Z,97898.52
2018-07-12T02:44:07.141Z,97888.84
2018-07-12T02:46:34.699Z,97890.02
2018-07-12T02:49:02.140Z,97896.03
2018-07-12T02:51:29.618Z,97899.03
2018-07-12T02:53:57.127Z,97896.25
2018-07-12T02:56:24.570Z,97894.98
2018-07-12T02:58:52.001Z,97897.70
2018-07-12T03:01:19.432Z,97899.25
2018-07-12T03:03:46.984Z,97895.37
2018-07-12T03:06:14.381Z,97895.14
2018-07-12T03:08:42.119Z,97898.08
2018-07-12T03:11:09.718Z,97891.67
2018-07-12T03:13:37.283Z,97892.42
2018-07-12T03:16:04.750Z,97888.66
2018-07-12T03:18:32.288Z,97886.10
2018-07-12T03:20:59.740Z,97889.28
2018-07-12T03:23:27.351Z,97889.77
2018-07-12T03:25:54.972Z,97894.34
2018-07-12T03:28:22.411Z,97892.42
2018-07-12T03:30:50.083Z,97900.41
2018-07-12T03:33:17.570Z,97892.53
2018-07-12T03:35:45.139Z,97886.46
2018-07-12T03:38:12.578Z,97890.06
2018-07-12T03:40:40.205Z,97893.28
2018-07-12T03:43:07.880Z,97900.08
2018-07-12T03:45:35.418Z,97893.01
2018-07-12T03:48:02.926Z,97896.95
2018-07-12T03:50:30.482Z,97893.66
2018-07-12T03:52:58.001Z,97891.75
2018-07-12T03:55:25.578Z,97901.88
2018-07-12T03:57:53.154Z,97895.09
2018-07-12T04:00:20.679Z,97895.73
2018-07-12T04:02:48.265Z,97902.63
2018-07-12T04:05:15.675Z,97898.47
2018-07-12T04:07:43.388Z,97907.10
2018-07-12T04:10:10.955Z,97903.44
2018-07-12T04:12:38.468Z,97911.27
2018-07-12T04:15:05.916Z,97917.16
2018-07-12T04:17:34.386Z,97917.49
2018-07-12T04:20:03.096Z,97915.02
2018-07-12T04:22:31.654Z,97910.83
2018-07-12T04:24:59.114Z,97903.95
2018-07-12T04:27:26.784Z,97908.78
2018-07-12T04:29:55.467Z,97909.33
2018-07-12T04:32:22.868Z,97908.64
2018-07-12T04:34:50.939Z,97912.05
2018-07-12T04:37:18.650Z,97907.28
2018-07-12T04:39:46.462Z,97906.30
2018-07-12T04:42:13.888Z,97906.44
2018-07-12T04:44:41.480Z,97904.77
2018-07-12T04:47:09.030Z,97901.28
2018-07-12T04:49:36.389Z,97901.54
2018-07-12T04:52:03.966Z,97905.70
2018-07-12T04:54:31.427Z,97903.38
2018-07-12T04:56:58.918Z,97906.84
2018-07-12T04:59:26.405Z,97915.48
2018-07-12T05:01:53.951Z,97910.51
2018-07-12T05:04:21.481Z,97913.41
2018-07-12T05:06:48.908Z,97916.22
2018-07-12T05:09:16.450Z,97918.77
2018-07-12T05:11:43.966Z,97923.23
2018-07-12T05:14:11.514Z,97925.91
2018-07-12T05:16:38.988Z,97924.70
2018-07-12T05:19:06.530Z,97929.09
2018-07-12T05:21:34.141Z,97929.08
2018-07-12T05:24:01.695Z,97922.88
2018-07-12T05:26:29.238Z,97920.92
2018-07-12T05:28:56.767Z,97927.34
2018-07-12T05:31:24.368Z,97928.17
2018-07-12T05:33:51.918Z,97922.67
2018-07-12T05:36:59.991Z,97922.19
2018-07-12T05:39:29.038Z,97925.41
2018-07-12T05:41:58.177Z,97927.83
2018-07-12T05:44:27.481Z,97929.02
2018-07-12T05:46:56.815Z,97936.45
2018-07-12T05:49:25.965Z,97936.30
2018-07-12T05:51:55.114Z,97937.02
2018-07-12T05:54:24.263Z,97931.47
2018-07-12T05:56:53.497Z,97941.92
2018-07-12T05:59:22.555Z,97943.95
2018-07-12T06:02:02.547Z,97946.16
2018-07-12T06:04:31.694Z,97942.46
2018-07-12T06:07:00.769Z,97949.02
2018-07-12T06:09:29.845Z,97951.92
2018-07-12T06:11:58.586Z,97944.06
2018-07-12T06:14:27.675Z,97952.28
2018-07-12T06:16:56.418Z,97957.52
2018-07-12T06:19:25.667Z,97954.66
2018-07-12T06:21:55.346Z,97943.77
2018-07-12T06:24:24.378Z,97944.94
2018-07-12T06:26:53.075Z,97946.72
2018-07-12T06:29:21.888Z,97940.08
2018-07-12T06:31:50.697Z,97931.89
2018-07-12T06:34:19.907Z,97933.73
2018-07-12T06:36:48.948Z,97932.20
2018-07-12T06:39:18.082Z,97926.20
2018-07-12T06:41:46.899Z,97930.52
2018-07-12T06:44:15.654Z,97926.65
2018-07-12T06:46:44.601Z,97929.91
2018-07-12T06:49:13.847Z,97922.63
2018-07-12T06:51:42.890Z,97922.71
2018-07-12T06:54:12.024Z,97920.75
2018-07-12T06:56:41.287Z,97921.95
2018-07-12T06:59:10.430Z,97923.44
2018-07-12T07:01:39.266Z,97931.48
2018-07-12T07:04:08.422Z,97929.75
2018-07-12T07:06:37.659Z,97925.52
2018-07-12T07:09:09.083Z,97934.91
2018-07-12T07:11:37.989Z,97933.23
2018-07-12T07:14:07.099Z,97937.50
2018-07-12T07:16:36.328Z,97928.96
2018-07-12T07:19:05.240Z,97931.98
2018-07-12T07:21:34.335Z,97927.03
2018-07-12T07:24:03.485Z,97929.09
2018-07-12T07:26:32.537Z,97930.86
2018-07-12T07:29:01.763Z,97934.12
2018-07-12T07:31:30.515Z,97935.53
2018-07-12T07:33:59.835Z,97936.95
2018-07-12T07:36:28.879Z,97936.78
2018-07-12T07:38:57.878Z,97941.30
2018-07-12T07:41:27.073Z,97934.84
2018-07-12T07:43:56.040Z,97939.66
2018-07-12T07:46:25.052Z,97939.55
2018-07-12T07:48:54.287Z,97937.31
2018-07-12T07:51:23.245Z,97937.78
2018-07-12T07:53:52.250Z,97935.72
2018-07-12T07:56:21.243Z,97938.82
2018-07-12T07:58:50.431Z,97946.16
2018-07-12T08:01:19.531Z,97945.78
2018-07-12T08:03:48.674Z,97945.11
2018-07-12T08:06:17.629Z,97938.93
2018-07-12T08:08:46.579Z,97943.03
2018-07-12T08:11:15.603Z,97943.53
2018-07-12T08:13:44.747Z,97944.11
2018-07-12T08:16:13.947Z,97948.45
2018-07-12T08:18:43.039Z,97944.87
2018-07-12T08:21:15.710Z,97948.11
2018-07-12T08:23:46.082Z,97947.20
2018-07-12T08:26:15.409Z,97946.25
2018-07-12T08:28:44.932Z,97940.89
2018-07-12T08:31:14.653Z,97940.88
2018-07-12T08:33:44.316Z,97937.70
2018-07-12T08:36:14.000Z,97936.95
2018-07-12T08:38:43.412Z,97936.88
2018-07-12T08:41:13.196Z,97938.72
2018-07-12T08:43:42.827Z,97937.66
2018-07-12T08:46:12.462Z,97932.38
2018-07-12T08:48:42.346Z,97941.97
2018-07-12T08:51:12.182Z,97941.38
2018-07-12T08:53:41.729Z,97935.67
2018-07-12T08:56:12.272Z,97928.40
2018-07-12T08:58:41.827Z,97932.23
2018-07-12T09:01:11.561Z,97933.42
2018-07-12T09:03:40.791Z,97929.95
2018-07-12T09:06:10.582Z,97936.05
2018-07-12T09:08:40.438Z,97934.25
2018-07-12T09:11:09.805Z,97945.78
2018-07-12T09:13:39.017Z,97937.31
2018-07-12T09:16:07.978Z,97938.66
2018-07-12T09:18:37.104Z,97937.39
2018-07-12T09:21:06.409Z,97940.16
2018-07-12T09:23:35.723Z,97935.39
2018-07-12T09:26:05.806Z,97935.55
2018-07-12T09:28:34.708Z,97930.65
2018-07-12T09:31:03.578Z,97928.23
2018-07-12T09:33:32.658Z,97928.56
2018-07-12T09:36:01.964Z,97925.21
2018-07-12T09:38:47.434Z,97912.25
2018-07-12T09:41:16.523Z,97916.88
2018-07-12T09:43:46.130Z,97917.00
2018-07-12T09:46:15.639Z,97920.03
2018-07-12T09:48:45.735Z,97916.29
2018-07-12T09:51:15.475Z,97913.27
2018-07-12T09:53:45.449Z,97918.89
2018-07-12T09:56:14.696Z,97914.86
2018-07-12T09:58:43.649Z,97917.05
2018-07-12T10:01:17.967Z,97910.14
2018-07-12T10:03:51.451Z,97909.80
2018-07-12T10:06:31.646Z,97919.86
2018-07-12T10:09:05.959Z,97914.61
2018-07-12T10:11:39.913Z,97916.67
2018-07-12T10:14:14.231Z,97920.37
2018-07-12T10:16:45.612Z,97923.77
2018-07-12T10:19:14.589Z,97920.44
2018-07-12T10:21:43.770Z,97921.06
2018-07-12T10:24:13.013Z,97921.31
2018-07-12T10:26:41.804Z,97922.79
2018-07-12T10:29:10.944Z,97926.50
2018-07-12T10:31:40.298Z,97918.02
2018-07-12T10:34:09.510Z,97920.72
2018-07-12T10:36:38.588Z,97924.95
2018-07-12T10:39:09.365Z,97921.95
2018-07-12T10:41:38.638Z,97921.52
2018-07-12T10:44:07.706Z,97926.95
2018-07-12T10:46:36.749Z,97924.94
2018-07-12T10:49:05.858Z,97912.30
2018-07-12T10:51:34.899Z,97921.11
2018-07-12T10:54:04.039Z,97912.50
2018-07-12T10:56:33.286Z,97913.11
2018-07-12T10:59:02.568Z,97912.53
2018-07-12T11:01:31.520Z,97906.66
2018-07-12T11:04:00.723Z,97906.52
2018-07-12T11:06:29.774Z,97902.07
2018-07-12T11:08:58.948Z,97899.36
2018-07-12T11:11:28.134Z,97897.66
2018-07-12T11:13:56.863Z,97892.76
2018-07-12T11:16:25.818Z,97899.00
2018-07-12T11:18:54.990Z,97898.63
2018-07-12T11:21:24.140Z,97893.64
2018-07-12T11:23:53.176Z,97887.22
2018-07-12T11:26:22.394Z,97868.89
2018-07-12T11:28:51.959Z,97877.09
2018-07-12T11:31:20.969Z,97882.94
2018-07-12T11:33:51.270Z,97885.86
2018-07-12T11:36:20.503Z,97878.09
2018-07-12T11:38:49.735Z,97876.04
2018-07-12T11:41:18.838Z,97874.27
2018-07-12T11:43:47.690Z,97880.33
2018-07-12T11:46:17.075Z,97877.72
2018-07-12T11:48:46.556Z,97878.94
2018-07-12T11:51:15.861Z,97883.66
2018-07-12T11:53:44.731Z,97884.55
2018-07-12T11:56:13.697Z,97873.20
2018-07-12T11:58:42.479Z,97867.30
2018-07-12T12:01:11.355Z,97870.68
2018-07-12T12:03:40.152Z,97862.09
2018-07-12T12:06:09.454Z,97864.88
2018-07-12T12:08:38.473Z,97860.41
2018-07-12T12:11:07.298Z,97858.75
2018-07-12T12:13:36.174Z,97853.41
2018-07-12T12:16:05.258Z,97854.33
2018-07-12T12:18:34.463Z,97856.42
2018-07-12T12:21:03.799Z,97860.97
2018-07-12T12:23:32.940Z,97856.66
2018-07-12T12:26:02.106Z,97848.77
2018-07-12T12:28:31.138Z,97845.72
2018-07-12T12:31:00.074Z,97844.11
2018-07-12T12:33:29.294Z,97844.28
2018-07-12T12:35:58.549Z,97839.61
2018-07-12T12:38:27.704Z,97835.63
2018-07-12T12:40:56.734Z,97829.09
2018-07-12T12:43:25.935Z,97827.52
2018-07-12T12:45:55.162Z,97823.85
2018-07-12T12:48:25.191Z,97825.99
2018-07-12T12:50:54.258Z,97826.59
2018-07-12T12:53:23.418Z,97828.80
2018-07-12T12:55:52.636Z,97819.88
2018-07-12T12:58:21.746Z,97816.61
2018-07-12T13:00:50.970Z,97813.45
2018-07-12T13:03:20.219Z,97821.79
2018-07-12T13:05:49.346Z,97816.56
2018-07-12T13:08:18.457Z,97811.59
2018-07-12T13:10:47.414Z,97809.09
2018-07-12T13:13:16.390Z,97811.89
2018-07-12T13:15:45.590Z,97808.51
2018-07-12T13:18:14.809Z,97807.65
2018-07-12T13:20:44.129Z,97806.46
2018-07-12T13:23:13.394Z,97809.81
2018-07-12T13:25:42.701Z,97804.85
2018-07-12T13:28:11.910Z,97804.69
2018-07-12T13:30:41.014Z,97799.89
2018-07-12T13:33:09.871Z,97801.19
2018-07-12T13:35:39.017Z,97791.52
2018-07-12T13:38:07.979Z,97794.48
2018-07-12T13:40:37.273Z,97782.35
2018-07-12T13:43:06.278Z,97793.11
2018-07-12T13:45:35.304Z,97786.31
2018-07-12T13:48:04.635Z,97790.77
2018-07-12T13:50:33.778Z,97786.56
2018-07-12T13:53:03.016Z,97786.56
2018-07-12T13:55:32.076Z,97786.91
2018-07-12T13:58:01.056Z,97780.95
2018-07-12T14:00:29.798Z,97781.03
2018-07-12T14:02:58.904Z,97773.70
2018-07-12T14:05:28.114Z,97777.91
2018-07-12T14:07:56.843Z,97774.94
2018-07-12T14:10:25.990Z,97768.45
2018-07-12T14:12:55.327Z,97767.09
2018-07-12T14:15:24.439Z,97763.72
2018-07-12T14:17:53.252Z,97766.03
2018-07-12T14:20:22.443Z,97765.72
2018-07-12T14:22:51.696Z,97760.63
2018-07-12T14:25:20.754Z,97761.83
2018-07-12T14:27:50.025Z,97758.34
2018-07-12T14:30:18.784Z,97761.16
2018-07-12T14:32:47.944Z,97760.73
2018-07-12T14:35:17.109Z,97754.59
2018-07-12T14:37:46.338Z,97755.26
2018-07-12T14:40:15.399Z,97754.16
2018-07-12T14:42:44.406Z,97751.99
2018-07-12T14:45:13.720Z,97750.45
2018-07-12T14:47:42.948Z,97738.70
2018-07-12T14:50:12.094Z,97739.41
2018-07-12T14:52:41.102Z,97744.07
2018-07-12T14:55:10.230Z,97742.95
2018-07-12T14:57:39.386Z,97742.52
2018-07-12T15:00:08.524Z,97743.28
2018-07-12T15:02:37.770Z,97742.36
2018-07-12T15:05:07.014Z,97743.20
2018-07-12T15:07:36.340Z,97739.19
2018-07-12T15:10:05.511Z,97726.45
2018-07-12T15:12:34.447Z,97738.47
2018-07-12T15:15:03.736Z,97721.65
2018-07-12T15:17:32.955Z,97734.22
2018-07-12T15:20:02.134Z,97723.80
2018-07-12T15:22:31.195Z,97726.64
2018-07-12T15:25:00.024Z,97721.64
2018-07-12T15:27:29.387Z,97722.83
2018-07-12T15:29:58.306Z,97721.08
2018-07-12T15:32:27.354Z,97727.95
2018-07-12T15:34:56.506Z,97724.06
2018-07-12T15:37:25.708Z,97723.72
2018-07-12T15:39:54.882Z,97727.70
2018-07-12T15:42:23.893Z,97724.82
2018-07-12T15:44:52.937Z,97726.56
2018-07-12T15:47:22.225Z,97731.01
2018-07-12T15:49:51.386Z,97731.14
2018-07-12T15:52:20.437Z,97727.25
2018-07-12T15:54:49.443Z,97724.67
2018-07-12T15:57:18.350Z,97724.99
2018-07-12T15:59:47.706Z,97728.45
2018-07-12T16:02:16.955Z,97721.00
2018-07-12T16:04:46.199Z,97712.73
2018-07-12T16:07:15.298Z,97713.69
2018-07-12T16:09:44.481Z,97703.23
2018-07-12T16:12:13.619Z,97708.27
2018-07-12T16:14:42.698Z,97712.97
2018-07-12T16:17:11.715Z,97710.89
2018-07-12T16:19:40.940Z,97713.67
2018-07-12T16:22:10.007Z,97713.38
2018-07-12T16:24:38.951Z,97712.63
2018-07-12T16:27:08.189Z,97713.56
2018-07-12T16:29:37.442Z,97716.53
2018-07-12T16:32:06.372Z,97718.93
2018-07-12T16:34:35.404Z,97721.87
2018-07-12T16:37:04.382Z,97718.91
2018-07-12T16:39:33.333Z,97722.81
2018-07-12T16:42:02.210Z,97725.17
2018-07-12T16:44:31.409Z,97722.55
2018-07-12T16:47:00.334Z,97723.95
2018-07-12T16:49:29.424Z,97725.80
2018-07-12T16:51:58.430Z,97724.59
2018-07-12T16:54:27.811Z,97730.71
2018-07-12T16:56:57.027Z,97730.21
2018-07-12T16:59:26.383Z,97729.36
2018-07-12T17:01:55.730Z,97733.95
2018-07-12T17:04:24.890Z,97728.39
2018-07-12T17:06:54.124Z,97735.50
2018-07-12T17:09:23.399Z,97737.53
2018-07-12T17:11:52.601Z,97737.05
2018-07-12T17:14:21.719Z,97737.22
2018-07-12T17:16:50.854Z,97734.28
2018-07-12T17:19:19.901Z,97740.88
2018-07-12T17:21:49.217Z,97742.34
2018-07-12T17:24:18.152Z,97745.80
2018-07-12T17:26:47.077Z,97743.05
2018-07-12T17:29:16.327Z,97746.05
2018-07-12T17:31:45.430Z,97750.36
2018-07-12T17:34:14.450Z,97748.43
2018-07-12T17:36:43.446Z,97753.09
2018-07-12T17:39:12.449Z,97749.02
2018-07-12T17:41:41.638Z,97744.94
2018-07-12T17:44:10.806Z,97749.11
2018-07-12T17:46:40.061Z,97752.79
2018-07-12T17:49:09.352Z,97756.30
2018-07-12T17:51:38.694Z,97751.48
2018-07-12T17:54:07.917Z,97754.86
2018-07-12T17:56:37.176Z,97754.50
2018-07-12T17:59:06.331Z,97762.51
2018-07-12T18:01:35.170Z,97764.95
2018-07-12T18:04:04.115Z,97762.78
2018-07-12T18:06:33.314Z,97772.30
2018-07-12T18:09:02.498Z,97764.50
2018-07-12T18:11:31.535Z,97767.36
2018-07-12T18:14:00.668Z,97774.10
2018-07-12T18:16:29.844Z,97770.87
2018-07-12T18:18:58.603Z,97775.11
2018-07-12T18:21:27.394Z,97775.31
2018-07-12T18:23:56.230Z,97785.55
2018-07-12T18:26:25.544Z,97784.86
2018-07-12T18:28:54.719Z,97796.12
2018-07-12T18:31:23.993Z,97802.17
2018-07-12T18:33:53.259Z,97809.23
2018-07-12T18:36:22.596Z,97816.35
2018-07-12T18:38:51.623Z,97820.91
2018-07-12T18:41:20.722Z,97819.19
2018-07-12T18:43:49.881Z,97816.11
2018-07-12T18:46:19.099Z,97825.65
2018-07-12T18:48:48.400Z,97826.72
2018-07-12T18:51:17.562Z,97829.66
2018-07-12T18:53:46.715Z,97827.33
2018-07-12T18:56:15.590Z,97832.81
2018-07-12T18:58:44.668Z,97833.98
2018-07-12T19:01:13.861Z,97837.86
2018-07-12T19:03:43.127Z,97841.73
2018-07-12T19:06:12.130Z,97840.23
2018-07-12T19:08:40.944Z,97841.41
2018-07-12T19:11:09.753Z,97846.45
2018-07-12T19:13:38.931Z,97847.35
2018-07-12T19:16:08.144Z,97846.45
2018-07-12T19:18:37.427Z,97848.55
2018-07-12T19:21:06.417Z,97849.73
2018-07-12T19:23:35.629Z,97845.95
2018-07-12T19:26:05.337Z,97850.74
2018-07-12T19:28:34.786Z,97843.80
2018-07-12T19:31:03.910Z,97853.30
2018-07-12T19:33:33.109Z,97854.88
2018-07-12T19:36:02.223Z,97855.73
2018-07-12T19:38:31.558Z,97861.70
2018-07-12T19:41:00.818Z,97869.91
2018-07-12T19:43:29.904Z,97871.75
2018-07-12T19:45:58.659Z,97877.56
2018-07-12T19:48:27.798Z,97883.56
2018-07-12T19:50:57.058Z,97884.49
2018-07-12T19:53:26.005Z,97883.25
2018-07-12T19:55:55.510Z,97890.25
2018-07-12T19:58:24.377Z,97890.98
2018-07-12T20:00:53.563Z,97892.09
2018-07-12T20:03:22.679Z,97894.02
2018-07-12T20:05:51.511Z,97899.52
2018-07-12T20:08:21.490Z,97900.85
2018-07-12T20:10:50.708Z,97906.45
2018-07-12T20:13:19.888Z,97912.63
2018-07-12T20:15:48.990Z,97907.68
2018-07-12T20:18:18.422Z,97914.52
2018-07-12T20:20:47.450Z,97915.30
2018-07-12T20:23:16.802Z,97917.28
2018-07-12T20:25:45.974Z,97918.14
2018-07-12T20:28:15.207Z,97918.33
2018-07-12T20:30:44.163Z,97917.14
2018-07-12T20:33:13.163Z,97911.05
2018-07-12T20:35:42.412Z,97909.08
2018-07-12T20:38:11.545Z,97912.05
2018-07-12T20:40:40.678Z,97908.88
2018-07-12T20:43:10.468Z,97911.77
2018-07-12T20:45:39.610Z,97919.41
2018-07-12T20:48:08.828Z,97925.22
2018-07-12T20:50:38.031Z,97925.20
2018-07-12T20:53:07.369Z,97927.45
2018-07-12T20:55:36.841Z,97923.16
2018-07-12T20:58:06.105Z,97920.13
2018-07-12T21:00:34.921Z,97922.68
2018-07-12T21:03:04.083Z,97920.22
2018-07-12T21:05:33.152Z,97916.77
2018-07-12T21:08:02.438Z,97921.43
2018-07-12T21:10:31.438Z,97913.23
2018-07-12T21:13:00.494Z,97917.09
2018-07-12T21:15:29.605Z,97920.69
2018-07-12T21:17:58.453Z,97920.46
2018-07-12T21:20:27.559Z,97911.13
2018-07-12T21:22:56.798Z,97908.95
2018-07-12T21:25:25.947Z,97904.35
2018-07-12T21:27:54.983Z,97909.86
2018-07-12T21:30:24.089Z,97905.84
2018-07-12T21:32:53.383Z,97895.73
2018-07-12T21:35:22.135Z,97895.30
2018-07-12T21:37:51.531Z,97890.84
2018-07-12T21:40:20.707Z,97883.15
2018-07-12T21:42:50.051Z,97885.40
2018-07-12T21:45:19.099Z,97883.05
2018-07-12T21:47:48.354Z,97879.50
2018-07-12T21:50:17.394Z,97875.19
2018-07-12T21:52:46.478Z,97877.81
2018-07-12T21:55:15.538Z,97878.29
2018-07-12T21:57:44.747Z,97876.23
2018-07-12T22:00:13.825Z,97871.77
2018-07-12T22:02:43.076Z,97876.31
2018-07-12T22:05:12.166Z,97867.77
2018-07-12T22:07:52.064Z,97865.43
2018-07-12T22:10:21.007Z,97863.65
2018-07-12T22:12:50.152Z,97860.22
2018-07-12T22:15:19.105Z,97866.69
2018-07-12T22:17:48.186Z,97873.04
2018-07-12T22:20:17.318Z,97875.34
2018-07-12T22:22:46.374Z,97881.70
2018-07-12T22:25:15.568Z,97881.75
2018-07-12T22:27:44.810Z,97881.57
2018-07-12T22:30:13.863Z,97875.63
2018-07-12T22:32:42.846Z,97882.11
2018-07-12T22:35:12.061Z,97879.32
2018-07-12T22:37:41.294Z,97875.20
2018-07-12T22:40:10.534Z,97872.19
2018-07-12T22:42:39.689Z,97875.85
2018-07-12T22:45:08.759Z,97871.11
2018-07-12T22:47:38.123Z,97870.66
2018-07-12T22:50:07.127Z,97877.48
2018-07-12T22:52:36.214Z,97881.97
2018-07-12T22:55:05.405Z,97878.98
2018-07-12T22:57:34.653Z,97876.12
2018-07-12T23:00:03.960Z,97872.26
2018-07-12T23:02:33.071Z,97874.25
2018-07-12T23:05:02.200Z,97877.06
2018-07-12T23:07:31.211Z,97870.71
2018-07-12T23:10:00.434Z,97867.69
2018-07-12T23:12:29.925Z,97864.30
2018-07-12T23:14:58.833Z,97873.53
2018-07-12T23:17:28.079Z,97871.08
2018-07-12T23:19:57.411Z,97865.73
2018-07-12T23:22:26.596Z,97864.53
2018-07-12T23:24:55.671Z,97866.60
2018-07-12T23:27:24.951Z,97869.88
2018-07-12T23:29:54.091Z,97865.78
2018-07-12T23:32:23.251Z,97874.66
2018-07-12T23:34:52.378Z,97869.44
2018-07-12T23:37:21.282Z,97863.84
2018-07-12T23:39:50.366Z,97868.58
2018-07-12T23:42:19.178Z,97872.72
2018-07-12T23:44:48.182Z,97870.77
2018-07-12T23:47:17.319Z,97869.08
2018-07-12T23:49:46.434Z,97870.16
2018-07-12T23:52:15.355Z,97867.73
2018-07-12T23:54:44.490Z,97870.89
2018-07-12T23:57:13.680Z,97867.14
2018-07-12T23:59:42.683Z,97868.70
